Time;durP1;ratioP1;P1;durP2;ratioP2;P2;SDS_P1;SDS_P2;PMS_P1;PMS_P2;Temp;Humidity;BMP_temperature;BMP_pressure;BME280_temperature;BME280_humidity;BME280_pressure;Samples;Min_cycle;Max_cycle;Signal;HPM_P1;HPM_P2
2023/04/28 00:00:12;;;;;;;9.52;4.15;;;;;;;3.26;88.09;101350.94;4925743;29;20138;-70
2023/04/28 00:02:39;;;;;;;10.68;4.60;;;;;;;3.04;89.26;101356.75;4933711;29;20056;-70
2023/04/28 00:05:06;;;;;;;11.90;5.13;;;;;;;3.09;89.04;101352.00;4947634;29;20071;-70
2023/04/28 00:07:32;;;;;;;13.02;4.75;;;;;;;2.91;89.96;101354.84;4946618;29;20501;-70
2023/04/28 00:09:59;;;;;;;14.50;4.57;;;;;;;2.83;90.06;101346.53;4946466;29;20044;-69
2023/04/28 00:12:26;;;;;;;10.32;4.25;;;;;;;2.88;90.88;101344.44;4947773;29;20133;-70
2023/04/28 00:14:52;;;;;;;8.15;3.95;;;;;;;2.86;89.50;101345.50;4946155;29;20103;-69
2023/04/28 00:17:18;;;;;;;10.10;4.45;;;;;;;2.93;90.30;101348.59;4946234;29;20055;-69
2023/04/28 00:19:45;;;;;;;9.88;4.07;;;;;;;2.97;90.67;101331.59;4946037;29;20048;-70
2023/04/28 00:22:12;;;;;;;11.55;4.03;;;;;;;2.89;92.26;101338.22;4943314;29;20060;-69
2023/04/28 00:24:40;;;;;;;14.40;4.68;;;;;;;2.72;91.73;101340.19;4942937;29;20059;-69
2023/04/28 00:27:07;;;;;;;13.57;4.47;;;;;;;2.89;93.57;101340.88;4943845;29;20047;-69
2023/04/28 00:29:33;;;;;;;6.97;3.67;;;;;;;2.90;91.89;101329.31;4942062;29;20075;-70
2023/04/28 00:32:00;;;;;;;10.90;4.20;;;;;;;2.81;91.09;101332.53;4905266;29;20049;-69
2023/04/28 00:34:28;;;;;;;11.00;4.60;;;;;;;2.85;90.41;101334.03;4905482;29;20044;-69
2023/04/28 00:36:56;;;;;;;8.57;3.92;;;;;;;2.93;90.37;101327.41;4904919;29;20114;-69
2023/04/28 00:39:22;;;;;;;10.55;4.07;;;;;;;2.95;88.82;101333.47;4905488;29;20052;-69
2023/04/28 00:41:49;;;;;;;9.73;3.88;;;;;;;3.03;88.66;101328.53;4905455;29;20433;-69
2023/04/28 00:44:15;;;;;;;9.90;4.30;;;;;;;3.09;89.02;101326.34;4901625;29;20054;-70
2023/04/28 00:46:43;;;;;;;10.30;4.38;;;;;;;3.07;89.57;101317.66;4904969;29;20140;-70
2023/04/28 00:49:09;;;;;;;9.98;3.80;;;;;;;3.12;89.80;101323.50;4905604;29;20048;-69
2023/04/28 00:51:36;;;;;;;10.00;3.72;;;;;;;3.13;89.57;101319.03;4904149;29;20073;-70
2023/04/28 00:54:04;;;;;;;10.70;3.83;;;;;;;3.08;90.65;101318.50;4899335;29;20115;-70
2023/04/28 00:56:31;;;;;;;13.68;4.10;;;;;;;3.05;94.39;101308.94;4903285;29;20050;-70
2023/04/28 00:58:58;;;;;;;8.48;4.05;;;;;;;2.99;97.59;101313.78;4904804;29;20075;-70
2023/04/28 01:01:25;;;;;;;13.18;4.47;;;;;;;2.96;98.56;101303.34;4904152;29;20104;-70
2023/04/28 01:03:51;;;;;;;9.73;4.93;;;;;;;3.02;99.67;101309.13;4886097;29;20073;-70
2023/04/28 01:10:07;;;;;;;14.07;4.55;;;;;;;2.85;100.00;101299.59;4876111;29;20096;-69
2023/04/28 01:12:34;;;;;;;14.25;4.43;;;;;;;2.90;100.00;101296.66;4884028;29;20414;-70
2023/04/28 01:15:01;;;;;;;11.88;4.00;;;;;;;2.89;99.18;101301.13;4885973;29;20053;-70
2023/04/28 01:17:27;;;;;;;11.43;3.80;;;;;;;2.85;97.18;101294.28;4886202;29;20485;-70
2023/04/28 01:19:54;;;;;;;13.40;4.10;;;;;;;2.90;96.27;101289.56;4888124;29;20083;-70
2023/04/28 01:22:21;;;;;;;10.65;4.03;;;;;;;2.85;94.97;101290.78;4885765;29;20064;-70
2023/04/28 01:24:47;;;;;;;11.13;4.05;;;;;;;2.86;96.49;101287.22;4884677;29;20063;-70
2023/04/28 01:27:14;;;;;;;16.17;4.75;;;;;;;2.84;96.20;101289.94;4886347;29;20045;-70
2023/04/28 01:29:41;;;;;;;11.50;4.07;;;;;;;2.85;96.76;101286.34;4886818;29;20463;-70
2023/04/28 01:32:07;;;;;;;8.45;4.45;;;;;;;2.86;97.29;101288.06;4903767;29;20473;-70
2023/04/28 01:34:34;;;;;;;10.85;4.05;;;;;;;2.84;98.26;101283.78;4903974;29;20148;-70
2023/04/28 01:37:00;;;;;;;10.02;4.40;;;;;;;2.87;98.76;101281.81;4904597;29;20080;-70
2023/04/28 01:39:27;;;;;;;10.02;3.80;;;;;;;2.86;97.52;101280.09;4905375;29;20454;-70
2023/04/28 01:41:53;;;;;;;11.73;3.88;;;;;;;2.81;100.00;101282.19;4906202;29;20048;-70
2023/04/28 01:44:20;;;;;;;9.25;3.63;;;;;;;2.77;100.00;101282.47;4904218;29;20049;-70
2023/04/28 01:46:46;;;;;;;9.65;3.53;;;;;;;2.80;100.00;101279.63;4904318;29;20521;-70
2023/04/28 01:49:12;;;;;;;8.55;3.30;;;;;;;2.74;100.00;101278.22;4904053;29;20048;-70
2023/04/28 01:51:40;;;;;;;10.32;3.63;;;;;;;2.75;100.00;101281.72;4904187;29;20433;-70
2023/04/28 01:54:07;;;;;;;8.70;4.43;;;;;;;2.78;100.00;101279.72;4887053;29;20077;-70
2023/04/28 01:56:33;;;;;;;10.07;3.58;;;;;;;2.79;100.00;101273.50;4907514;29;20063;-69
2023/04/28 01:58:59;;;;;;;8.35;3.58;;;;;;;2.76;100.00;101271.03;4907717;29;20059;-69
2023/04/28 02:01:26;;;;;;;13.27;3.35;;;;;;;2.70;100.00;101271.41;4910109;29;20044;-69
2023/04/28 02:03:53;;;;;;;13.82;3.72;;;;;;;2.76;100.00;101271.03;4926850;29;20048;-68
2023/04/28 02:06:21;;;;;;;11.50;3.38;;;;;;;2.79;100.00;101268.19;4927056;29;20056;-69
2023/04/28 02:08:47;;;;;;;9.80;3.25;;;;;;;2.76;100.00;101270.19;4916883;29;20493;-69
2023/04/28 02:11:14;;;;;;;7.28;3.63;;;;;;;2.76;100.00;101271.03;4910099;29;20497;-68
2023/04/28 02:13:40;;;;;;;9.40;3.40;;;;;;;2.73;100.00;101268.56;4926306;29;20076;-70
2023/04/28 02:16:07;;;;;;;10.23;3.47;;;;;;;2.71;100.00;101272.25;4926875;29;20048;-68
2023/04/28 02:18:35;;;;;;;9.80;3.22;;;;;;;2.73;100.00;101271.22;4926597;29;20080;-69
2023/04/28 02:21:12;;;;;;;12.27;3.60;;;;;;;2.61;100.00;101266.66;4926246;29;20082;-69
2023/04/28 02:23:39;;;;;;;11.32;4.10;;;;;;;2.57;100.00;101266.00;4926286;29;20070;-70
2023/04/28 02:26:05;;;;;;;10.07;4.10;;;;;;;2.65;100.00;101262.88;4925445;29;20052;-70
2023/04/28 02:28:32;;;;;;;11.07;3.92;;;;;;;2.61;100.00;101264.03;4926822;29;20127;-70
2023/04/28 02:31:04;;;;;;;7.35;3.58;;;;;;;2.63;100.00;101264.78;4901723;23;20049;-69
2023/04/28 02:33:31;;;;;;;10.95;3.92;;;;;;;2.64;100.00;101256.72;4897189;29;20478;-69
2023/04/28 02:36:02;;;;;;;13.73;4.53;;;;;;;2.58;100.00;101256.25;4899031;29;20052;-69
2023/04/28 02:38:28;;;;;;;9.48;4.10;;;;;;;2.67;100.00;101248.59;4896976;29;20494;-69
2023/04/28 02:40:59;;;;;;;10.70;4.00;;;;;;;2.56;100.00;101251.06;4898025;29;20052;-69
2023/04/28 02:43:27;;;;;;;9.75;4.15;;;;;;;2.60;100.00;101251.72;4897990;29;20072;-70
2023/04/28 02:45:54;;;;;;;11.55;3.63;;;;;;;2.55;100.00;101240.59;4897216;29;20063;-69
2023/04/28 02:48:21;;;;;;;11.40;4.43;;;;;;;2.58;100.00;101238.59;4897050;29;20044;-69
2023/04/28 02:50:47;;;;;;;9.90;4.30;;;;;;;2.59;100.00;101239.44;4898298;29;20425;-69
2023/04/28 02:53:13;;;;;;;9.45;4.55;;;;;;;2.59;100.00;101242.09;4897248;29;20045;-70
2023/04/28 02:55:40;;;;;;;8.68;4.13;;;;;;;2.57;100.00;101247.47;4897315;29;20060;-69
2023/04/28 02:58:06;;;;;;;11.55;4.57;;;;;;;2.55;100.00;101240.59;4896711;29;20058;-69
2023/04/28 03:00:33;;;;;;;11.30;5.00;;;;;;;2.56;100.00;101244.94;4897622;29;20104;-69
2023/04/28 03:03:00;;;;;;;16.45;5.25;;;;;;;2.52;100.00;101243.44;4911317;29;20063;-69
2023/04/28 03:05:27;;;;;;;16.17;4.57;;;;;;;2.54;100.00;101238.88;4916843;29;20048;-69
2023/04/28 03:07:54;;;;;;;14.98;5.43;;;;;;;2.57;100.00;101230.72;4915837;29;20067;-69
2023/04/28 03:10:20;;;;;;;11.45;3.83;;;;;;;2.47;100.00;101233.09;4916084;29;20056;-67
2023/04/28 03:12:47;;;;;;;12.60;4.82;;;;;;;2.55;100.00;101230.84;4915912;29;20080;-69
2023/04/28 03:15:13;;;;;;;8.95;4.65;;;;;;;2.53;100.00;101229.22;4915774;29;20056;-68
2023/04/28 03:17:41;;;;;;;12.98;5.07;;;;;;;2.50;100.00;101224.13;4916037;29;20074;-68
2023/04/28 03:20:09;;;;;;;12.27;4.68;;;;;;;2.57;100.00;101230.72;4915974;29;20493;-68
2023/04/28 03:22:36;;;;;;;11.98;4.35;;;;;;;2.51;100.00;101232.00;4916080;29;20047;-69
2023/04/28 03:25:02;;;;;;;12.38;4.15;;;;;;;2.49;100.00;101227.72;4915795;29;20055;-69
2023/04/28 03:27:29;;;;;;;16.70;4.70;;;;;;;2.40;100.00;101215.88;4915887;29;20080;-70
2023/04/28 03:29:55;;;;;;;15.23;4.75;;;;;;;2.34;100.00;101217.13;4914262;29;20054;-68
2023/04/28 03:32:22;;;;;;;14.18;4.78;;;;;;;2.34;100.00;101219.78;4915006;29;20052;-69
2023/04/28 03:34:48;;;;;;;12.45;4.75;;;;;;;2.28;100.00;101217.50;4919500;29;20052;-68
2023/04/28 03:37:15;;;;;;;14.00;4.65;;;;;;;2.27;100.00;101209.66;4923223;29;20044;-69
2023/04/28 03:39:41;;;;;;;12.02;4.97;;;;;;;2.31;100.00;101212.03;4923725;29;20130;-70
2023/04/28 03:42:08;;;;;;;13.15;4.50;;;;;;;2.36;100.00;101217.03;4924983;29;20058;-70
2023/04/28 03:44:35;;;;;;;12.43;4.22;;;;;;;2.26;100.00;101213.25;4925296;29;20048;-69
2023/04/28 03:47:01;;;;;;;11.57;5.00;;;;;;;2.34;100.00;101214.50;4924549;29;20107;-70
2023/04/28 03:49:27;;;;;;;10.45;5.05;;;;;;;2.25;100.00;101212.41;4925234;29;20048;-70
2023/04/28 03:51:54;;;;;;;12.25;4.80;;;;;;;2.36;100.00;101214.38;4925236;29;20127;-70
2023/04/28 03:54:20;;;;;;;14.85;5.25;;;;;;;2.32;100.00;101211.06;4925612;29;20056;-70
2023/04/28 03:56:47;;;;;;;15.85;5.45;;;;;;;2.34;100.00;101206.56;4925252;29;20071;-70
2023/04/28 03:59:13;;;;;;;12.65;6.05;;;;;;;2.32;100.00;101197.00;4924649;29;20052;-70
2023/04/28 04:01:40;;;;;;;11.55;4.80;;;;;;;2.39;100.00;101208.91;4925746;29;20491;-70
2023/04/28 04:04:06;;;;;;;10.32;4.50;;;;;;;2.37;100.00;101201.06;4925374;29;20055;-70
2023/04/28 04:06:33;;;;;;;11.55;5.35;;;;;;;2.41;100.00;101199.91;4924721;29;20048;-68
2023/04/28 04:09:00;;;;;;;17.05;5.25;;;;;;;2.40;100.00;101202.66;4927450;29;20147;-70
2023/04/28 04:11:27;;;;;;;11.07;5.05;;;;;;;2.37;100.00;101195.78;4920165;29;20040;-68
2023/04/28 04:13:53;;;;;;;13.30;5.10;;;;;;;2.36;100.00;101194.03;4907943;29;20459;-68
2023/04/28 04:16:21;;;;;;;10.32;4.90;;;;;;;2.44;100.00;101193.56;4919041;29;20076;-70
2023/04/28 04:18:48;;;;;;;9.63;5.57;;;;;;;2.46;100.00;101196.13;4905450;29;20059;-69
2023/04/28 04:21:14;;;;;;;11.85;4.75;;;;;;;2.53;100.00;101198.28;4905129;29;20052;-68
2023/04/28 04:23:41;;;;;;;12.55;5.38;;;;;;;2.53;100.00;101195.66;4905724;29;20157;-68
2023/04/28 04:26:07;;;;;;;17.30;5.57;;;;;;;2.37;100.00;101194.91;4906112;29;20049;-70
2023/04/28 04:28:34;;;;;;;13.00;5.05;;;;;;;2.41;100.00;101194.63;4905416;29;20059;-70
2023/04/28 04:31:02;;;;;;;14.38;5.68;;;;;;;2.51;100.00;101196.69;4897813;29;20421;-72
2023/04/28 04:33:28;;;;;;;10.23;5.03;;;;;;;2.52;100.00;101182.50;4896270;29;20075;-73
2023/04/28 04:35:55;;;;;;;12.35;5.22;;;;;;;2.61;100.00;101189.84;4879014;29;20052;-73
2023/04/28 04:38:22;;;;;;;13.93;5.47;;;;;;;2.70;100.00;101180.47;4898349;29;20052;-73
2023/04/28 04:40:48;;;;;;;14.90;5.43;;;;;;;2.67;100.00;101182.38;4897728;29;20052;-73
2023/04/28 04:43:15;;;;;;;19.77;5.78;;;;;;;2.65;100.00;101184.28;4895363;29;20532;-74
2023/04/28 04:45:41;;;;;;;12.80;5.43;;;;;;;2.69;100.00;101178.78;4896992;29;20059;-72
2023/04/28 04:48:08;;;;;;;12.40;5.25;;;;;;;2.69;100.00;101179.63;4879138;29;20048;-74
2023/04/28 04:50:34;;;;;;;18.25;6.53;;;;;;;2.79;100.00;101179.88;4879586;29;20050;-71
2023/04/28 04:53:01;;;;;;;18.35;5.13;;;;;;;2.94;100.00;101178.06;4896532;29;20139;-73
2023/04/28 04:55:28;;;;;;;13.90;5.30;;;;;;;3.06;100.00;101180.72;4894358;29;20044;-73
2023/04/28 04:57:54;;;;;;;16.80;5.45;;;;;;;3.17;100.00;101180.06;4895805;29;20152;-74
2023/04/28 05:00:21;;;;;;;16.55;5.70;;;;;;;3.24;100.00;101183.13;4896240;29;20501;-74
2023/04/28 05:02:47;;;;;;;13.65;5.10;;;;;;;3.46;100.00;101172.81;4906576;29;20086;-74
2023/04/28 05:05:14;;;;;;;15.25;5.63;;;;;;;3.51;100.00;101183.09;4898675;29;20124;-73
2023/04/28 05:07:47;;;;;;;15.63;5.43;;;;;;;3.67;100.00;101173.16;4913998;29;20083;-73
2023/04/28 05:10:13;;;;;;;9.52;5.47;;;;;;;3.67;100.00;101167.84;4915532;29;20059;-73
2023/04/28 05:12:40;;;;;;;15.90;5.65;;;;;;;3.83;100.00;101172.97;4914921;29;20139;-74
2023/04/28 05:15:07;;;;;;;14.43;5.10;;;;;;;3.71;100.00;101163.19;4914272;29;20561;-74
2023/04/28 05:17:33;;;;;;;12.38;5.25;;;;;;;3.84;100.00;101166.69;4914457;29;20052;-75
2023/04/28 05:20:00;;;;;;;12.45;5.80;;;;;;;3.99;100.00;101159.47;4914306;29;20080;-74
2023/04/28 05:22:27;;;;;;;9.70;4.90;;;;;;;3.86;100.00;101160.34;4914032;29;20048;-74
2023/04/28 05:24:53;;;;;;;13.70;5.18;;;;;;;3.99;100.00;101156.81;4913419;29;20055;-74
2023/04/28 05:27:20;;;;;;;12.48;5.25;;;;;;;4.05;100.00;101159.03;4914805;29;20055;-74
2023/04/28 05:29:47;;;;;;;14.75;5.35;;;;;;;4.17;100.00;101154.66;4913653;29;20105;-74
2023/04/28 05:32:13;;;;;;;16.40;5.22;;;;;;;4.20;100.00;101157.97;4912624;29;20135;-74
2023/04/28 05:34:40;;;;;;;15.35;4.85;;;;;;;4.39;100.00;101154.06;4906835;29;20417;-74
2023/04/28 05:37:07;;;;;;;17.77;5.55;;;;;;;4.54;100.00;101155.59;4915563;29;20378;-74
2023/04/28 05:39:33;;;;;;;17.08;5.47;;;;;;;4.41;100.00;101150.31;4916332;29;20397;-72
2023/04/28 05:42:00;;;;;;;12.90;4.43;;;;;;;4.49;100.00;101155.94;4916749;29;20051;-72
2023/04/28 05:44:26;;;;;;;10.90;4.50;;;;;;;4.65;99.65;101158.31;4916073;29;20103;-73
2023/04/28 05:46:52;;;;;;;13.90;4.35;;;;;;;4.75;96.79;101146.06;4906490;29;20412;-73
2023/04/28 05:49:19;;;;;;;12.55;4.82;;;;;;;4.71;96.66;101136.63;4915480;29;20068;-74
2023/04/28 05:51:46;;;;;;;15.55;5.15;;;;;;;4.71;97.84;101136.63;4909303;29;20048;-74
2023/04/28 05:54:12;;;;;;;11.88;5.03;;;;;;;4.84;95.92;101138.38;4917069;29;20048;-74
2023/04/28 05:56:39;;;;;;;13.00;4.78;;;;;;;5.13;91.75;101138.88;4913654;29;20482;-73
2023/04/28 05:59:06;;;;;;;19.10;4.60;;;;;;;5.33;90.26;101134.72;4914588;29;20052;-72
2023/04/28 06:01:33;;;;;;;13.98;5.03;;;;;;;5.56;87.55;101135.63;4915253;29;20052;-73
2023/04/28 06:03:59;;;;;;;13.68;4.25;;;;;;;5.54;85.02;101133.09;4898137;29;20067;-73
2023/04/28 06:06:26;;;;;;;15.73;5.03;;;;;;;5.68;84.23;101130.22;4914628;29;20050;-73
2023/04/28 06:08:53;;;;;;;20.40;5.07;;;;;;;6.00;80.40;101122.38;4914288;29;20091;-73
2023/04/28 06:11:21;;;;;;;10.10;4.30;;;;;;;5.97;77.83;101122.59;4914268;29;20059;-73
2023/04/28 06:13:50;;;;;;;13.95;4.88;;;;;;;5.88;77.73;101109.19;4917219;29;20099;-72
2023/04/28 06:16:17;;;;;;;12.80;4.95;;;;;;;6.14;76.38;101126.59;4914215;29;20079;-73
2023/04/28 06:18:44;;;;;;;18.42;4.47;;;;;;;5.91;76.11;101115.13;4914355;29;20052;-72
2023/04/28 06:21:15;;;;;;;9.98;3.97;;;;;;;6.04;74.06;101120.31;4914242;29;20075;-73
2023/04/28 06:23:42;;;;;;;15.82;4.07;;;;;;;5.95;73.81;101118.38;4914742;29;20059;-73
2023/04/28 06:26:08;;;;;;;10.80;4.45;;;;;;;6.06;73.24;101118.38;4920349;29;20063;-66
2023/04/28 06:28:35;;;;;;;14.68;3.85;;;;;;;6.33;71.73;101107.38;4923909;29;20047;-67
2023/04/28 06:31:01;;;;;;;10.75;3.90;;;;;;;6.49;70.74;101109.63;4926718;29;20048;-66
2023/04/28 06:33:28;;;;;;;10.73;4.13;;;;;;;6.14;70.62;101110.63;4927755;29;20048;-68
2023/04/28 06:35:55;;;;;;;8.80;3.90;;;;;;;6.33;68.86;101109.19;4926591;29;20062;-67
2023/04/28 06:38:21;;;;;;;12.20;4.10;;;;;;;6.32;68.51;101107.47;4927463;29;20056;-67
2023/04/28 06:40:48;;;;;;;10.32;3.60;;;;;;;6.21;68.66;101106.50;4928714;29;20064;-67
2023/04/28 06:43:14;;;;;;;15.05;4.47;;;;;;;6.07;68.80;101101.41;4932097;29;20086;-68
2023/04/28 06:45:41;;;;;;;10.77;4.32;;;;;;;6.08;68.67;101103.13;4932759;29;20128;-70
2023/04/28 06:48:08;;;;;;;14.07;4.68;;;;;;;6.30;68.05;101096.13;4930470;29;20060;-67
2023/04/28 06:50:36;;;;;;;16.52;4.30;;;;;;;6.19;68.73;101097.78;4931874;29;20103;-67
2023/04/28 06:53:02;;;;;;;14.35;3.58;;;;;;;6.18;67.70;101096.09;4931316;29;20052;-67
2023/04/28 06:55:29;;;;;;;9.63;3.75;;;;;;;6.40;67.79;101100.59;4928578;29;20143;-67
2023/04/28 06:57:55;;;;;;;12.65;5.03;;;;;;;6.89;65.81;101091.22;4927254;29;21429;-65
2023/04/28 07:00:22;;;;;;;10.98;3.63;;;;;;;7.25;63.56;101081.09;4930060;29;20040;-65
2023/04/28 07:02:48;;;;;;;11.40;4.55;;;;;;;7.64;61.67;101078.72;4929658;29;20144;-67
2023/04/28 07:05:15;;;;;;;12.15;4.32;;;;;;;7.95;60.13;101070.69;4929102;29;20067;-65
2023/04/28 07:07:42;;;;;;;12.15;4.00;;;;;;;8.16;58.11;101082.19;4902280;29;20426;-67
2023/04/28 07:10:10;;;;;;;19.05;4.45;;;;;;;8.37;57.11;101072.25;4896446;29;20075;-68
2023/04/28 07:12:36;;;;;;;14.27;4.60;;;;;;;8.32;56.55;101070.97;4896289;29;20132;-68
2023/04/28 07:15:03;;;;;;;15.25;4.22;;;;;;;8.69;55.58;101070.34;4898033;29;20270;-68
2023/04/28 07:17:30;;;;;;;11.90;4.15;;;;;;;9.01;54.77;101070.06;4896371;29;20060;-70
2023/04/28 07:19:56;;;;;;;13.75;3.78;;;;;;;9.08;54.47;101063.16;4897622;29;20056;-70
2023/04/28 07:22:23;;;;;;;9.25;3.65;;;;;;;9.68;52.70;101061.09;4897128;29;20127;-69
2023/04/28 07:24:51;;;;;;;16.98;4.25;;;;;;;9.65;52.19;101060.56;4896727;29;20053;-70
2023/04/28 07:27:17;;;;;;;16.58;4.38;;;;;;;9.77;51.48;101062.88;4897093;29;20454;-70
2023/04/28 07:29:44;;;;;;;12.30;4.60;;;;;;;9.66;50.98;101046.16;4897165;29;20369;-70
2023/04/28 07:32:11;;;;;;;13.07;4.57;;;;;;;9.64;51.23;101046.28;4896370;29;20118;-70
2023/04/28 07:34:37;;;;;;;12.35;4.57;;;;;;;10.36;50.42;101044.69;4895680;29;20053;-70
2023/04/28 07:37:04;;;;;;;18.88;5.43;;;;;;;10.31;49.74;101044.28;4897829;29;20104;-70
2023/04/28 07:39:35;;;;;;;9.10;4.22;;;;;;;9.86;50.12;101041.56;4896152;29;20077;-69
2023/04/28 07:42:02;;;;;;;16.20;4.57;;;;;;;10.09;50.13;101034.81;4895982;29;20051;-70
2023/04/28 07:44:30;;;;;;;17.52;4.22;;;;;;;9.72;50.20;101035.69;4896692;29;20051;-70
2023/04/28 07:46:58;;;;;;;13.07;4.50;;;;;;;10.01;50.22;101029.34;4896529;29;22720;-70
2023/04/28 07:49:26;;;;;;;12.80;4.20;;;;;;;9.94;50.37;101030.94;4895984;29;20421;-70
2023/04/28 07:51:54;;;;;;;15.15;4.95;;;;;;;10.05;50.52;101028.06;4896029;29;20048;-70
2023/04/28 07:54:21;;;;;;;12.65;4.50;;;;;;;10.10;50.14;101035.66;4895619;29;20059;-70
2023/04/28 07:56:47;;;;;;;15.05;3.95;;;;;;;10.54;48.94;101025.09;4896783;29;20052;-67
2023/04/28 07:59:14;;;;;;;12.80;4.97;;;;;;;10.91;48.55;101025.78;4888222;29;20040;-71
2023/04/28 08:01:41;;;;;;;9.88;4.43;;;;;;;10.69;47.91;101013.69;4899746;29;20052;-70
2023/04/28 08:04:08;;;;;;;15.32;4.50;;;;;;;10.41;49.07;101026.31;4915128;29;20080;-70
2023/04/28 08:06:35;;;;;;;14.55;4.20;;;;;;;10.26;49.63;101025.97;4916431;29;20056;-70
2023/04/28 08:09:04;;;;;;;11.60;4.45;;;;;;;11.06;48.12;101017.16;4915180;29;20044;-69
2023/04/28 08:11:32;;;;;;;15.75;3.90;;;;;;;11.68;46.76;101017.94;4915454;29;20477;-70
2023/04/28 08:14:01;;;;;;;14.18;3.85;;;;;;;12.09;45.84;101018.13;4914526;29;20059;-70
2023/04/28 08:16:29;;;;;;;13.73;3.80;;;;;;;12.19;45.38;101004.53;4914987;29;20140;-70
2023/04/28 08:18:56;;;;;;;10.30;3.60;;;;;;;12.39;44.58;101014.84;4914492;29;20052;-70
2023/04/28 08:21:23;;;;;;;13.63;3.88;;;;;;;12.43;43.84;100998.38;4914855;29;20044;-70
2023/04/28 08:23:50;;;;;;;9.55;4.25;;;;;;;12.26;44.05;100997.50;4904626;29;20054;-70
2023/04/28 08:26:16;;;;;;;10.68;4.13;;;;;;;12.31;43.71;101001.34;4913199;29;20519;-70
2023/04/28 08:28:43;;;;;;;14.43;4.22;;;;;;;12.31;43.96;100995.13;4915043;29;20087;-71
2023/04/28 08:31:09;;;;;;;20.50;3.97;;;;;;;11.89;44.07;100985.25;4913819;29;20048;-70
2023/04/28 08:33:36;;;;;;;8.10;3.42;;;;;;;11.97;43.62;100992.50;4914516;29;20048;-70
2023/04/28 08:36:03;;;;;;;12.60;3.78;;;;;;;12.10;42.42;100984.84;4898040;29;20058;-70
2023/04/28 08:38:30;;;;;;;9.95;3.65;;;;;;;11.78;43.02;100991.78;4914321;29;20543;-70
2023/04/28 08:40:57;;;;;;;10.40;3.40;;;;;;;11.91;43.12;100986.81;4898038;29;20052;-70
2023/04/28 08:43:24;;;;;;;7.72;3.20;;;;;;;12.23;41.97;100987.91;4914420;29;20080;-70
2023/04/28 08:45:50;;;;;;;10.20;3.40;;;;;;;12.61;41.17;100986.44;4913522;29;20500;-71
2023/04/28 08:48:21;;;;;;;14.77;3.53;;;;;;;12.67;41.02;100982.25;4913745;29;20461;-70
2023/04/28 08:50:53;;;;;;;14.75;3.63;;;;;;;13.29;40.15;100979.03;4914057;29;20048;-70
2023/04/28 08:53:25;;;;;;;13.50;4.40;;;;;;;12.64;40.99;100974.50;4914067;29;20051;-71
2023/04/28 08:55:56;;;;;;;10.88;4.22;;;;;;;12.68;41.09;100975.84;4914579;29;20060;-69
2023/04/28 08:58:26;;;;;;;17.08;4.00;;;;;;;12.69;41.16;100972.13;4913892;29;20048;-70
2023/04/28 09:00:53;;;;;;;15.27;3.88;;;;;;;13.31;40.43;100967.03;4914289;29;20420;-70
2023/04/28 09:03:20;;;;;;;10.38;3.80;;;;;;;13.53;39.94;100960.09;4913233;29;20044;-70
2023/04/28 09:05:47;;;;;;;17.08;5.00;;;;;;;12.68;40.47;100957.00;4913870;29;20058;-71
2023/04/28 09:08:14;;;;;;;18.95;5.05;;;;;;;13.22;40.53;100957.31;4913538;29;20040;-71
2023/04/28 09:10:41;;;;;;;10.45;4.30;;;;;;;13.57;39.47;100953.34;4913397;29;20525;-71
2023/04/28 09:13:07;;;;;;;20.35;4.95;;;;;;;13.52;39.64;100946.78;4914069;29;20512;-71
2023/04/28 09:15:36;;;;;;;13.45;4.95;;;;;;;13.61;39.38;100934.97;4914258;29;20524;-69
2023/04/28 09:18:05;;;;;;;14.85;5.13;;;;;;;13.01;40.14;100939.00;4913866;29;20629;-69
2023/04/28 09:20:33;;;;;;;15.45;5.30;;;;;;;12.46;40.44;100941.53;4904982;29;20048;-71
2023/04/28 09:23:12;;;;;;;27.45;5.55;;;;;;;12.58;41.04;100937.50;4912463;29;20132;-71
2023/04/28 09:25:38;;;;;;;12.95;4.60;;;;;;;13.44;40.00;100938.72;4913775;29;20056;-70
2023/04/28 09:28:21;;;;;;;16.60;5.65;;;;;;;12.59;41.00;100929.25;4905021;29;20059;-71
2023/04/28 09:30:47;;;;;;;16.52;5.03;;;;;;;13.20;40.33;100932.41;4912512;29;20052;-70
2023/04/28 09:33:15;;;;;;;20.90;5.20;;;;;;;14.39;38.91;100928.66;4912891;29;20044;-71
2023/04/28 09:35:44;;;;;;;13.15;5.38;;;;;;;14.58;38.38;100921.91;4913573;29;20054;-70
2023/04/28 09:38:11;;;;;;;14.32;5.10;;;;;;;14.07;39.06;100924.28;4912950;29;20573;-70
2023/04/28 09:40:56;;;;;;;11.43;5.10;;;;;;;13.73;39.85;100925.44;4913376;29;20052;-70
2023/04/28 09:43:25;;;;;;;12.30;4.97;;;;;;;14.22;39.27;100911.72;4895761;29;20052;-70
2023/04/28 09:45:51;;;;;;;13.13;4.53;;;;;;;14.69;38.29;100907.94;4903365;29;20048;-70
2023/04/28 09:48:35;;;;;;;11.30;5.18;;;;;;;14.26;38.76;100904.94;4913414;29;20107;-69
2023/04/28 09:51:04;;;;;;;14.45;5.38;;;;;;;13.67;39.79;100910.00;4913204;29;20052;-70
2023/04/28 09:53:32;;;;;;;10.95;4.95;;;;;;;14.02;39.48;100914.03;4913221;29;20052;-71
2023/04/28 09:56:01;;;;;;;10.85;5.35;;;;;;;14.46;38.80;100902.59;4913793;29;20072;-71
2023/04/28 09:58:29;;;;;;;12.23;5.28;;;;;;;14.04;38.82;100905.75;4912675;29;20059;-70
2023/04/28 10:00:57;;;;;;;10.48;4.78;;;;;;;14.46;38.99;100901.75;4912098;29;20398;-71
2023/04/28 10:03:29;;;;;;;20.17;5.43;;;;;;;14.44;38.90;100907.34;4912523;29;20071;-71
2023/04/28 10:05:58;;;;;;;13.77;5.50;;;;;;;14.36;38.93;100901.16;4912872;29;20509;-70
2023/04/28 10:08:26;;;;;;;21.85;5.65;;;;;;;14.69;38.22;100897.16;4913230;29;20055;-70
2023/04/28 10:10:54;;;;;;;14.65;5.68;;;;;;;14.54;38.46;100893.59;4913152;29;20565;-70
2023/04/28 10:13:22;;;;;;;14.00;5.30;;;;;;;14.70;38.03;100898.00;4912631;29;20040;-70
2023/04/28 10:15:49;;;;;;;13.07;5.00;;;;;;;15.18;37.36;100883.16;4913691;29;20080;-70
2023/04/28 10:18:17;;;;;;;16.63;4.78;;;;;;;14.69;37.92;100889.06;4907610;29;20409;-69
2023/04/28 10:20:46;;;;;;;17.13;5.00;;;;;;;14.92;37.81;100874.69;4916780;29;20078;-69
2023/04/28 10:23:39;;;;;;;14.10;4.57;;;;;;;14.47;38.52;100881.84;4917449;29;20048;-70
2023/04/28 10:26:11;;;;;;;13.30;5.35;;;;;;;15.40;37.64;100869.75;4916604;29;20048;-71
2023/04/28 10:28:49;;;;;;;15.07;5.05;;;;;;;15.06;37.35;100863.06;4916680;29;20058;-71
2023/04/28 10:31:19;;;;;;;12.60;4.70;;;;;;;15.73;36.65;100855.81;4908854;29;20048;-71
2023/04/28 10:33:48;;;;;;;10.32;5.40;;;;;;;15.79;36.87;100849.63;4915744;29;20044;-69
2023/04/28 10:36:48;;;;;;;13.43;5.22;;;;;;;15.26;37.01;100855.22;4916713;29;20489;-70
2023/04/28 10:39:15;;;;;;;27.48;9.32;;;;;;;14.86;37.58;100853.81;4917179;29;20052;-70
2023/04/28 10:41:44;;;;;;;17.25;6.28;;;;;;;14.90;37.88;100852.41;4918082;29;20099;-70
2023/04/28 10:44:28;;;;;;;16.95;5.38;;;;;;;15.09;37.51;100846.47;4914439;29;20529;-70
2023/04/28 10:47:08;;;;;;;16.98;4.70;;;;;;;15.06;37.87;100849.53;4915210;29;20492;-70
2023/04/28 10:49:53;;;;;;;13.88;4.88;;;;;;;14.89;37.53;100837.25;4916494;29;20473;-71
2023/04/28 10:52:32;;;;;;;13.38;5.35;;;;;;;14.70;37.82;100827.78;4915681;29;20131;-71
2023/04/28 10:55:29;;;;;;;9.95;4.35;;;;;;;14.51;38.53;100830.00;4916622;29;20048;-71
2023/04/28 10:58:14;;;;;;;10.88;4.95;;;;;;;14.64;38.26;100828.53;4916182;29;20044;-71
2023/04/28 11:00:42;;;;;;;15.90;5.50;;;;;;;12.20;40.85;100831.38;4916933;29;20060;-71
2023/04/28 11:03:41;;;;;;;17.17;5.15;;;;;;;12.19;41.54;100825.16;4916381;29;20052;-69
2023/04/28 11:06:19;;;;;;;18.60;5.43;;;;;;;12.84;41.26;100833.19;4915124;29;20091;-71
2023/04/28 11:08:45;;;;;;;16.95;5.82;;;;;;;12.59;41.64;100832.38;4916428;29;20458;-71
2023/04/28 11:11:14;;;;;;;10.55;5.07;;;;;;;13.17;41.09;100833.06;4916180;29;20044;-71
2023/04/28 11:13:42;;;;;;;13.70;5.70;;;;;;;13.02;41.69;100829.44;4916357;29;20044;-71
2023/04/28 11:16:08;;;;;;;14.20;5.50;;;;;;;12.97;41.73;100829.09;4906897;29;20058;-70
2023/04/28 11:18:54;;;;;;;12.43;5.38;;;;;;;13.00;41.88;100823.38;4915429;29;20055;-71
2023/04/28 11:21:23;;;;;;;13.93;5.97;;;;;;;13.23;41.67;100821.59;4915651;29;20048;-70
2023/04/28 11:23:51;;;;;;;17.23;5.53;;;;;;;12.97;41.95;100823.72;4916276;29;20087;-70
2023/04/28 11:26:18;;;;;;;16.88;5.80;;;;;;;13.21;42.06;100828.16;4916810;29;20052;-70
2023/04/28 11:28:54;;;;;;;16.67;6.22;;;;;;;12.17;42.85;100824.47;4916415;29;20047;-71